Time;durP1;ratioP1;P1;durP2;ratioP2;P2;SDS_P1;SDS_P2;PMS_P1;PMS_P2;Temp;Humidity;BMP_temperature;BMP_pressure;BME280_temperature;BME280_humidity;BME280_pressure;Samples;Min_cycle;Max_cycle;Signal;HPM_P1;HPM_P2
2021/01/06 00:01:51;;;;;;;18.64;13.70;;;4.60;99.90;;;9.49;83.94;101699.25;1707172;74;24519;-75
2021/01/06 00:04:08;;;;;;;16.36;12.80;;;4.60;99.90;;;9.46;84.37;101691.37;1709057;74;24859;-75
2021/01/06 00:06:29;;;;;;;16.85;12.51;;;4.60;99.90;;;9.30;84.48;101688.27;1714955;73;24517;-76
2021/01/06 00:08:47;;;;;;;17.94;12.99;;;4.60;99.90;;;9.51;84.66;101693.69;1715263;74;24499;-74
2021/01/06 00:11:04;;;;;;;16.31;11.99;;;4.60;99.90;;;9.60;84.24;101700.84;1712318;74;24499;-77
2021/01/06 00:13:22;;;;;;;14.92;12.05;;;4.50;99.90;;;9.48;83.56;101694.91;1706610;74;24491;-73
2021/01/06 00:15:40;;;;;;;16.28;12.10;;;4.60;99.90;;;9.51;83.45;101689.78;1716764;73;24475;-75
2021/01/06 00:17:57;;;;;;;15.58;11.26;;;4.60;99.90;;;9.39;84.20;101693.31;1714843;73;24966;-74
2021/01/06 00:20:15;;;;;;;16.29;12.49;;;4.60;99.90;;;9.35;84.37;101694.48;1712240;74;24440;-75
2021/01/06 00:22:31;;;;;;;16.23;12.81;;;4.60;99.90;;;9.49;84.97;101688.85;1698861;74;24445;-74
2021/01/06 00:24:47;;;;;;;16.04;13.22;;;4.60;99.90;;;9.50;84.96;101688.00;1690220;74;24838;-76
2021/01/06 00:27:05;;;;;;;17.76;13.28;;;4.60;99.90;;;9.42;84.58;101692.55;1708488;73;24435;-74
2021/01/06 00:29:21;;;;;;;17.74;13.15;;;4.60;99.90;;;9.42;84.69;101686.91;1712719;73;24848;-76
2021/01/06 00:31:40;;;;;;;20.31;13.90;;;4.60;99.90;;;9.42;84.54;101689.94;1712361;74;24476;-75
2021/01/06 00:33:56;;;;;;;19.02;13.93;;;4.60;99.90;;;9.55;84.35;101686.86;1708456;74;24504;-75
2021/01/06 00:36:19;;;;;;;18.52;14.97;;;4.60;99.90;;;9.38;84.16;101685.06;1705717;74;24496;-74
2021/01/06 00:38:38;;;;;;;19.00;13.22;;;4.60;99.90;;;9.48;85.22;101689.70;1717077;74;24503;-75
2021/01/06 00:40:55;;;;;;;18.63;14.23;;;4.60;99.90;;;9.40;84.48;101688.60;1711838;74;24442;-74
2021/01/06 00:43:15;;;;;;;18.52;13.79;;;4.50;99.90;;;9.38;85.06;101685.06;1712312;74;24420;-75
2021/01/06 00:45:31;;;;;;;20.46;14.21;;;4.60;99.90;;;9.43;84.85;101674.80;1712009;74;24419;-74
2021/01/06 00:47:48;;;;;;;20.03;14.70;;;4.50;99.90;;;9.46;84.82;101678.38;1713809;74;24454;-75
2021/01/06 00:50:08;;;;;;;20.55;14.61;;;4.50;99.90;;;9.33;84.83;101677.96;1706520;74;24515;-74
2021/01/06 00:52:26;;;;;;;21.15;14.73;;;4.50;99.90;;;9.18;85.14;101676.69;1717213;74;24936;-74
2021/01/06 00:54:42;;;;;;;19.53;13.00;;;4.50;99.90;;;9.29;85.92;101676.12;1710911;74;24965;-76
2021/01/06 00:56:59;;;;;;;19.58;13.39;;;4.50;99.90;;;9.20;85.32;101678.02;1717374;74;24574;-73
2021/01/06 00:59:15;;;;;;;17.99;12.81;;;4.50;99.90;;;9.33;85.54;101679.26;1711783;73;24945;-75
2021/01/06 01:01:32;;;;;;;18.42;13.80;;;4.50;99.90;;;9.23;84.91;101678.14;1707161;74;24554;-75
2021/01/06 01:03:50;;;;;;;19.31;13.62;;;4.50;99.90;;;9.16;85.19;101673.59;1712520;73;24473;-73
2021/01/06 01:06:07;;;;;;;19.46;13.74;;;4.50;99.90;;;9.30;85.78;101678.77;1700010;74;24428;-74
2021/01/06 01:08:24;;;;;;;20.03;14.18;;;4.40;99.90;;;9.41;85.38;101677.35;1706008;74;24483;-74
2021/01/06 01:10:43;;;;;;;18.16;13.66;;;4.50;99.90;;;9.31;84.91;101669.27;1704708;74;24526;-73
2021/01/06 01:13:01;;;;;;;21.86;14.47;;;4.50;99.90;;;9.41;84.91;101680.36;1694224;74;24569;-76
2021/01/06 01:15:18;;;;;;;19.91;13.53;;;4.50;99.90;;;9.38;84.83;101672.48;1696035;74;24447;-73
2021/01/06 01:17:34;;;;;;;18.79;14.55;;;4.50;99.90;;;9.35;85.04;101669.39;1708461;74;24518;-75
2021/01/06 01:19:50;;;;;;;20.11;14.20;;;4.50;99.90;;;9.38;85.01;101666.88;1707446;74;24477;-74
2021/01/06 01:22:08;;;;;;;17.61;13.46;;;4.50;99.90;;;9.27;84.98;101664.39;1701871;73;24898;-74
2021/01/06 01:24:24;;;;;;;16.29;12.00;;;4.50;99.90;;;9.24;85.19;101666.91;1712151;74;24531;-74
2021/01/06 01:26:41;;;;;;;19.42;14.07;;;4.50;99.90;;;9.27;85.56;101667.39;1710199;74;24870;-76
2021/01/06 01:28:58;;;;;;;17.52;12.81;;;4.50;99.90;;;9.35;85.40;101668.09;1704745;75;24480;-74
2021/01/06 01:31:14;;;;;;;17.35;12.52;;;4.50;99.90;;;9.28;84.99;101655.74;1705141;74;24453;-74
2021/01/06 01:33:31;;;;;;;19.91;13.07;;;4.50;99.90;;;9.21;85.29;101669.41;1703475;74;24528;-74
2021/01/06 01:35:48;;;;;;;19.55;12.78;;;4.50;99.90;;;9.42;85.31;101669.15;1720472;73;24881;-73
2021/01/06 01:38:07;;;;;;;15.69;12.15;;;4.50;99.90;;;9.23;84.90;101672.95;1714465;74;24948;-73
2021/01/06 01:40:27;;;;;;;17.28;12.19;;;4.50;99.90;;;9.30;84.95;101670.08;1716469;74;24471;-73
2021/01/06 01:42:44;;;;;;;18.38;13.46;;;4.50;99.90;;;9.23;85.26;101674.25;1703044;74;24867;-75
2021/01/06 01:45:04;;;;;;;19.50;13.41;;;4.40;99.90;;;9.21;85.32;101680.66;1704509;74;24516;-73
2021/01/06 01:47:25;;;;;;;18.59;13.72;;;4.40;99.90;;;9.34;85.61;101677.14;1706039;74;24488;-75
2021/01/06 01:49:47;;;;;;;20.05;13.91;;;4.40;99.90;;;9.33;85.28;101678.85;1704285;74;24514;-74
2021/01/06 01:52:08;;;;;;;17.72;12.66;;;4.50;99.90;;;9.29;85.40;101675.72;1701550;74;24934;-75
2021/01/06 01:54:29;;;;;;;17.42;12.91;;;4.50;99.90;;;9.32;84.96;101675.80;1703234;74;24476;-73
2021/01/06 01:56:51;;;;;;;17.29;12.48;;;4.50;99.90;;;9.33;84.79;101676.66;1704648;74;24457;-76
2021/01/06 01:59:11;;;;;;;17.88;12.40;;;4.40;99.90;;;9.15;84.78;101680.49;1708354;73;24878;-74
2021/01/06 02:01:28;;;;;;;17.51;12.17;;;4.40;99.90;;;9.11;85.23;101681.25;1703637;74;24529;-73
2021/01/06 02:03:52;;;;;;;18.87;12.41;;;4.40;99.90;;;9.18;86.26;101683.17;1704445;74;25930;-76
2021/01/06 02:06:12;;;;;;;17.69;12.65;;;4.40;99.90;;;9.14;85.53;101677.45;1705221;74;24947;-73
2021/01/06 02:08:34;;;;;;;16.55;12.06;;;4.40;99.90;;;9.33;85.30;101687.05;1709780;74;25005;-75
2021/01/06 02:10:56;;;;;;;17.11;12.33;;;4.40;99.90;;;9.35;85.27;101681.49;1702081;74;24966;-77
2021/01/06 02:13:18;;;;;;;15.03;11.76;;;4.40;99.90;;;9.43;84.26;101677.39;1705474;74;24503;-75
2021/01/06 02:15:42;;;;;;;17.21;12.38;;;4.40;99.90;;;9.51;84.24;101674.59;1710858;74;24526;-74
2021/01/06 02:17:59;;;;;;;17.38;11.90;;;4.40;99.90;;;9.46;83.72;101676.18;1702880;74;24703;-75
2021/01/06 02:20:22;;;;;;;16.72;12.51;;;4.40;99.90;;;9.41;84.09;101676.05;1710500;73;24903;-75
2021/01/06 02:22:38;;;;;;;16.53;12.20;;;4.40;99.90;;;9.59;83.90;101680.48;1711312;73;24573;-75
2021/01/06 02:24:55;;;;;;;15.18;11.97;;;4.40;99.90;;;9.46;83.58;101677.07;1694817;74;24506;-74
2021/01/06 02:27:12;;;;;;;16.31;13.03;;;4.50;99.90;;;9.35;83.81;101678.48;1707765;73;24949;-74
2021/01/06 02:29:28;;;;;;;16.86;11.69;;;4.50;99.90;;;9.23;84.39;101678.14;1711060;73;24413;-74
2021/01/06 02:31:47;;;;;;;15.22;11.15;;;4.40;99.90;;;9.22;84.46;101672.47;1716707;74;24458;-74
2021/01/06 02:34:04;;;;;;;15.68;12.10;;;4.40;99.90;;;9.30;84.31;101665.77;1707070;74;24973;-73
2021/01/06 02:36:22;;;;;;;16.50;12.64;;;4.40;99.90;;;9.32;84.36;101672.31;1701009;74;25129;-73
2021/01/06 02:38:40;;;;;;;17.14;12.52;;;4.50;99.90;;;9.29;84.13;101667.92;1706592;74;24898;-73
2021/01/06 02:40:58;;;;;;;18.84;12.58;;;4.50;99.90;;;9.22;83.95;101676.36;1707958;73;24462;-77
2021/01/06 02:43:17;;;;;;;15.75;12.36;;;4.40;99.90;;;9.26;85.09;101673.03;1704930;75;24438;-72
2021/01/06 02:45:33;;;;;;;15.70;12.25;;;4.40;99.90;;;9.25;84.70;101667.35;1711705;74;24522;-73
2021/01/06 02:47:53;;;;;;;14.42;11.44;;;4.40;99.90;;;9.45;84.77;101672.72;1713189;74;24436;-73
2021/01/06 02:50:15;;;;;;;13.11;11.33;;;4.40;99.90;;;9.31;84.09;101667.96;1709488;74;24975;-74
2021/01/06 02:52:38;;;;;;;13.74;11.00;;;4.40;99.90;;;9.20;84.34;101665.03;1709954;74;24468;-73
2021/01/06 02:54:55;;;;;;;15.25;11.73;;;4.40;99.90;;;9.16;84.27;101669.69;1696943;74;24450;-73
2021/01/06 02:57:15;;;;;;;14.64;11.48;;;4.40;99.90;;;9.07;84.37;101665.09;1704195;74;24902;-73
2021/01/06 02:59:36;;;;;;;14.06;10.82;;;4.30;99.90;;;9.12;84.87;101666.52;1702512;74;24507;-74
2021/01/06 03:01:54;;;;;;;14.36;12.12;;;4.30;99.90;;;9.11;84.88;101664.77;1713780;73;24573;-74
2021/01/06 03:04:16;;;;;;;13.13;11.41;;;4.30;99.90;;;9.17;84.32;101667.14;1703764;74;24537;-74
2021/01/06 03:06:40;;;;;;;14.38;11.51;;;4.30;99.90;;;9.23;84.31;101668.16;1715971;73;24680;-74
2021/01/06 03:08:56;;;;;;;14.03;11.40;;;4.30;99.90;;;9.19;83.86;101673.27;1714538;74;24590;-73
2021/01/06 03:11:15;;;;;;;14.78;12.20;;;4.30;99.90;;;9.23;83.72;101668.61;1702479;74;24453;-73
2021/01/06 03:13:33;;;;;;;16.40;12.24;;;4.30;99.90;;;9.10;83.84;101668.22;1714564;74;24461;-73
2021/01/06 03:15:49;;;;;;;16.04;12.07;;;4.30;99.90;;;9.20;84.00;101664.63;1707544;74;24450;-72
2021/01/06 03:18:07;;;;;;;15.64;12.10;;;4.30;99.90;;;9.11;83.92;101664.37;1709723;74;24577;-73
2021/01/06 03:20:28;;;;;;;13.73;11.20;;;4.30;99.90;;;9.10;84.13;101669.52;1706934;74;25081;-75
2021/01/06 03:22:49;;;;;;;15.31;11.96;;;4.30;99.90;;;8.90;83.75;101665.02;1706848;74;24466;-72
2021/01/06 03:25:12;;;;;;;12.33;9.99;;;4.20;99.90;;;8.97;84.67;101667.39;1714068;74;24524;-75
2021/01/06 03:27:34;;;;;;;13.49;10.54;;;4.20;99.90;;;8.86;84.36;101666.18;1714487;73;24518;-76
2021/01/06 03:29:52;;;;;;;17.19;11.89;;;4.20;99.90;;;8.83;84.74;101659.60;1715066;74;24412;-75
2021/01/06 03:32:15;;;;;;;14.20;11.50;;;4.10;99.90;;;8.71;84.95;101657.94;1714933;74;24477;-73
2021/01/06 03:34:37;;;;;;;15.10;11.35;;;4.10;99.90;;;8.97;85.34;101660.89;1710363;74;24926;-75
2021/01/06 03:37:00;;;;;;;15.89;11.94;;;4.10;99.90;;;8.92;84.23;101659.87;1714934;73;24590;-73
2021/01/06 03:39:21;;;;;;;18.13;12.62;;;4.10;99.90;;;9.07;84.03;101656.45;1707409;74;24914;-73
2021/01/06 03:41:38;;;;;;;17.28;12.27;;;4.10;99.90;;;9.00;83.38;101647.99;1713930;73;24921;-74
2021/01/06 03:43:59;;;;;;;14.88;12.48;;;4.10;99.90;;;9.01;83.83;101654.94;1714917;74;25126;-73
2021/01/06 03:46:20;;;;;;;15.62;12.29;;;4.10;99.90;;;9.14;84.05;101657.06;1688539;74;24462;-73
2021/01/06 03:48:45;;;;;;;16.75;12.19;;;4.10;99.90;;;8.97;83.71;101655.70;1697874;74;24453;-74
2021/01/06 03:51:08;;;;;;;16.12;11.92;;;4.10;99.90;;;9.00;83.59;101647.59;1724753;73;24520;-73
2021/01/06 03:53:33;;;;;;;16.26;11.75;;;4.10;99.90;;;9.27;83.16;101655.30;1707890;73;24566;-74
2021/01/06 03:55:58;;;;;;;15.73;11.69;;;4.10;99.90;;;9.04;83.34;101649.86;1707322;74;24886;-73
2021/01/06 03:58:27;;;;;;;13.99;12.05;;;4.10;99.90;;;9.02;83.30;101654.13;1720103;73;24431;-73
2021/01/06 04:00:50;;;;;;;15.71;12.45;;;4.10;99.90;;;8.99;84.27;101652.30;1706321;74;24440;-74
2021/01/06 04:03:12;;;;;;;16.01;12.42;;;4.10;99.90;;;8.94;83.82;101647.81;1705080;74;24508;-73
2021/01/06 04:05:32;;;;;;;14.74;11.50;;;4.10;99.90;;;8.95;83.77;101645.67;1706701;73;24500;-74
2021/01/06 04:07:52;;;;;;;14.45;11.07;;;4.10;99.90;;;8.97;83.74;101648.80;1711478;74;24538;-73
2021/01/06 04:10:14;;;;;;;15.18;11.95;;;4.10;99.90;;;8.84;83.39;101644.47;1708204;73;24982;-74
2021/01/06 04:12:32;;;;;;;14.75;11.42;;;4.10;99.90;;;8.83;84.38;101644.02;1721066;73;24541;-73
2021/01/06 04:14:49;;;;;;;15.03;12.49;;;4.10;99.90;;;8.94;83.36;101645.22;1711086;74;24524;-73
2021/01/06 04:17:34;;;;;;;14.28;11.70;;;4.00;99.90;;;8.90;83.16;101639.45;1707110;74;24587;-73
2021/01/06 04:19:53;;;;;;;13.55;10.43;;;4.00;99.90;;;8.83;83.34;101640.13;1697134;74;24926;-75
2021/01/06 04:22:10;;;;;;;16.09;12.80;;;4.00;99.90;;;8.83;83.89;101644.91;1712632;74;24587;-74
2021/01/06 04:24:27;;;;;;;13.57;10.59;;;4.00;99.90;;;8.95;83.27;101638.77;1711895;73;24575;-73
2021/01/06 04:26:43;;;;;;;15.90;11.75;;;4.00;99.90;;;8.67;84.16;101637.89;1739178;73;24941;-73
2021/01/06 04:29:01;;;;;;;15.63;11.64;;;4.00;99.90;;;8.93;83.88;101639.13;1713607;73;24931;-74
2021/01/06 04:31:22;;;;;;;13.00;11.22;;;4.00;99.90;;;8.74;83.44;101634.66;1705912;74;24404;-74
2021/01/06 04:33:44;;;;;;;14.24;11.55;;;4.00;99.90;;;8.94;83.99;101634.42;1702364;73;24559;-73
2021/01/06 04:36:05;;;;;;;13.88;11.64;;;4.00;99.90;;;8.99;83.31;101631.52;1707335;73;24597;-76
2021/01/06 04:38:26;;;;;;;15.75;11.98;;;4.00;99.90;;;9.08;82.52;101632.22;1708722;74;24449;-73
2021/01/06 04:40:48;;;;;;;13.82;11.76;;;4.00;99.90;;;8.94;82.31;101635.72;1704590;74;24895;-74
2021/01/06 04:43:12;;;;;;;15.58;12.00;;;4.00;99.90;;;8.96;82.30;101631.87;1698528;74;24868;-74
2021/01/06 04:45:33;;;;;;;15.54;11.44;;;4.00;99.90;;;8.84;82.64;101628.89;1704207;74;24916;-74
2021/01/06 04:48:44;;;;;;;16.49;12.61;;;4.00;99.90;;;8.75;83.17;101623.02;1696866;73;24893;-74
2021/01/06 04:51:25;;;;;;;16.30;12.08;;;4.00;99.90;;;8.98;83.09;101626.28;1700980;74;24516;-74
2021/01/06 04:54:39;;;;;;;15.67;11.99;;;4.00;99.90;;;8.89;82.78;101629.51;1710257;74;24884;-74
2021/01/06 05:00:03;;;;;;;16.56;11.66;;;3.90;99.90;;;9.10;82.05;101618.86;1721163;72;25364;-76
2021/01/06 05:02:33;;;;;;;15.14;11.27;;;3.90;99.90;;;8.76;82.82;101622.17;1702574;74;24508;-76
2021/01/06 05:05:05;;;;;;;15.00;11.63;;;3.90;99.90;;;9.00;82.22;101623.31;1682759;74;24368;-74
2021/01/06 05:07:31;;;;;;;14.39;11.64;;;3.90;99.90;;;8.86;81.79;101625.93;1697829;74;24523;-74
2021/01/06 05:09:52;;;;;;;17.09;12.35;;;3.90;99.90;;;8.82;81.82;101621.50;1703263;74;24592;-73
2021/01/06 05:12:17;;;;;;;16.47;12.16;;;3.90;99.90;;;8.96;81.94;101621.48;1706169;74;24499;-73
2021/01/06 05:14:39;;;;;;;16.97;12.58;;;3.90;99.90;;;8.88;81.79;101621.23;1704742;74;24664;-75
2021/01/06 05:16:56;;;;;;;15.07;11.16;;;3.90;99.90;;;9.04;81.90;101616.09;1687089;74;24891;-73
2021/01/06 05:19:20;;;;;;;15.50;12.30;;;3.90;99.90;;;8.73;81.92;101623.39;1695220;74;24516;-75
2021/01/06 05:21:38;;;;;;;16.52;12.34;;;3.90;99.90;;;8.79;81.92;101620.97;1695832;74;25038;-74
2021/01/06 05:23:58;;;;;;;14.99;11.73;;;3.90;99.90;;;8.81;82.24;101620.61;1703177;74;24498;-72
2021/01/06 05:26:15;;;;;;;15.05;12.07;;;3.90;99.90;;;8.89;82.35;101621.72;1696352;74;24447;-75
2021/01/06 05:28:33;;;;;;;15.18;12.14;;;3.90;99.90;;;8.94;81.75;101622.73;1699710;74;24457;-73
2021/01/06 05:30:56;;;;;;;16.70;12.39;;;4.00;99.90;;;8.99;82.03;101622.42;1703608;74;24558;-74
2021/01/06 05:33:17;;;;;;;14.32;12.15;;;4.00;99.90;;;9.14;81.51;101625.89;1698906;75;24442;-76
2021/01/06 05:35:38;;;;;;;15.05;12.17;;;4.00;99.90;;;9.09;81.06;101622.27;1699340;74;24879;-73
2021/01/06 05:38:00;;;;;;;15.67;12.10;;;4.00;99.90;;;8.94;80.88;101621.84;1699491;74;24424;-74
2021/01/06 05:40:18;;;;;;;15.48;12.00;;;4.00;99.90;;;9.00;81.00;101623.31;1701204;75;24445;-75
2021/01/06 05:42:43;;;;;;;14.54;11.95;;;4.00;99.90;;;9.04;80.56;101622.59;1697095;74;24743;-75
2021/01/06 05:45:01;;;;;;;16.51;12.35;;;4.00;99.90;;;9.01;80.17;101618.57;1694686;74;24587;-74
2021/01/06 05:47:24;;;;;;;16.04;12.03;;;4.00;99.90;;;8.95;81.39;101619.29;1696113;75;24433;-74
2021/01/06 05:49:41;;;;;;;15.99;12.37;;;4.00;99.90;;;8.95;81.17;101615.39;1703043;74;24903;-74
2021/01/06 05:52:02;;;;;;;13.82;11.13;;;4.00;99.90;;;8.97;80.88;101616.73;1700654;74;24456;-75
2021/01/06 05:54:22;;;;;;;15.90;12.29;;;4.00;99.90;;;8.81;80.82;101619.71;1692491;74;24437;-74
2021/01/06 05:56:51;;;;;;;15.68;11.73;;;4.00;99.90;;;8.80;81.42;101607.14;1701237;74;24490;-74
2021/01/06 05:59:22;;;;;;;15.09;11.58;;;3.90;99.90;;;8.88;81.70;101615.18;1689869;74;24553;-74
2021/01/06 06:01:46;;;;;;;16.69;11.77;;;3.90;99.90;;;9.00;81.13;101614.22;1678139;75;24959;-74
2021/01/06 06:04:20;;;;;;;14.00;10.92;;;3.90;99.90;;;8.90;81.07;101609.59;1680382;75;24984;-75
2021/01/06 06:10:31;;;;;;;13.92;11.02;;;3.90;99.90;;;8.98;80.94;101614.19;1740059;72;25213;-74
2021/01/06 06:12:59;;;;;;;13.81;10.56;;;3.90;99.90;;;8.74;81.18;101615.19;1695127;74;24555;-73
2021/01/06 06:15:50;;;;;;;13.78;11.12;;;3.80;99.90;;;8.63;81.36;101613.55;1705385;75;24475;-74
2021/01/06 06:21:09;;;;;;;14.01;10.41;;;3.80;99.90;;;8.91;80.50;101616.56;1735928;72;25253;-73
2021/01/06 06:24:02;;;;;;;14.56;10.90;;;3.80;99.90;;;8.66;81.38;101612.77;1694247;75;24491;-73
2021/01/06 06:26:27;;;;;;;14.16;10.53;;;3.80;99.90;;;8.69;81.41;101616.76;1695894;75;24518;-74
2021/01/06 06:28:51;;;;;;;13.24;10.50;;;3.80;99.90;;;8.56;81.40;101625.00;1698263;75;24881;-76
2021/01/06 06:31:31;;;;;;;12.72;10.55;;;3.80;99.90;;;8.70;82.22;101617.21;1700555;75;24491;-74
2021/01/06 06:33:57;;;;;;;12.65;10.87;;;3.80;99.90;;;8.88;81.18;101619.08;1693300;75;24875;-74
2021/01/06 06:36:20;;;;;;;13.49;11.01;;;3.70;99.90;;;8.69;80.96;101622.81;1698238;75;24441;-74
2021/01/06 06:38:42;;;;;;;12.86;9.98;;;3.70;99.90;;;8.71;80.89;101623.75;1695975;75;24520;-74
2021/01/06 06:41:04;;;;;;;13.65;10.34;;;3.70;99.90;;;8.58;80.34;101631.98;1699271;75;24551;-76
2021/01/06 06:43:40;;;;;;;11.92;9.83;;;3.70;99.90;;;8.50;80.53;101624.81;1704641;75;24872;-75
2021/01/06 06:46:20;;;;;;;13.68;10.10;;;3.70;99.90;;;8.46;80.37;101633.32;1700193;75;24428;-73
2021/01/06 06:48:45;;;;;;;12.76;9.52;;;3.70;99.90;;;8.59;80.01;101635.47;1700992;75;24468;-73
2021/01/06 06:51:08;;;;;;;13.12;10.65;;;3.70;99.90;;;8.76;79.88;101639.05;1707249;75;24448;-73
2021/01/06 06:53:39;;;;;;;13.64;9.57;;;3.70;99.90;;;8.50;79.60;101638.69;1701603;74;24508;-74
2021/01/06 06:56:04;;;;;;;13.17;9.47;;;3.70;99.90;;;8.51;79.89;101637.84;1700678;75;24958;-73
2021/01/06 06:58:50;;;;;;;11.38;9.32;;;3.70;99.90;;;8.40;80.06;101640.52;1705936;74;24456;-74
2021/01/06 07:01:20;;;;;;;12.90;9.90;;;3.60;99.90;;;8.43;80.26;101638.02;1703843;75;24426;-77
2021/01/06 07:03:45;;;;;;;13.43;9.81;;;3.60;99.90;;;8.53;79.81;101641.78;1707201;75;24473;-75
2021/01/06 07:06:06;;;;;;;12.93;9.97;;;3.60;99.90;;;8.42;79.75;101634.97;1698226;75;24516;-75
2021/01/06 07:08:27;;;;;;;11.56;9.08;;;3.50;99.90;;;8.31;79.96;101638.04;1666951;76;24471;-76
2021/01/06 07:10:54;;;;;;;12.16;9.54;;;3.50;99.90;;;8.17;80.13;101640.13;1698046;75;24444;-74
2021/01/06 07:13:17;;;;;;;13.50;9.84;;;3.40;99.90;;;8.12;80.46;101642.12;1702632;73;24491;-74
2021/01/06 07:15:37;;;;;;;12.60;10.05;;;3.30;99.90;;;8.08;80.60;101643.73;1705953;75;24441;-77
2021/01/06 07:17:57;;;;;;;12.09;9.65;;;3.30;99.90;;;8.06;80.94;101640.64;1704689;75;24617;-75
2021/01/06 07:20:17;;;;;;;12.37;9.75;;;3.20;99.90;;;7.97;80.88;101647.68;1698493;74;24582;-74
2021/01/06 07:22:39;;;;;;;13.91;9.85;;;3.20;99.90;;;7.99;80.71;101650.33;1709394;73;24535;-79
2021/01/06 07:25:03;;;;;;;12.00;9.66;;;3.10;99.90;;;8.02;80.52;101653.91;1716969;73;24433;-74
2021/01/06 07:27:20;;;;;;;14.46;9.65;;;3.10;99.90;;;7.97;80.08;101650.67;1665707;74;24940;-75
2021/01/06 07:29:50;;;;;;;15.33;11.01;;;3.00;99.90;;;8.01;79.60;101659.94;1617512;76;24496;-75
2021/01/06 07:32:15;;;;;;;15.15;10.63;;;3.00;99.90;;;8.02;79.58;101658.20;1659759;76;24470;-76
2021/01/06 07:34:42;;;;;;;14.20;10.00;;;3.00;99.90;;;8.01;79.96;101652.56;1653788;76;24670;-77
2021/01/06 07:37:03;;;;;;;13.22;9.82;;;3.00;99.90;;;7.95;80.00;101660.14;1657738;76;24488;-76
2021/01/06 07:39:28;;;;;;;14.01;10.43;;;3.00;99.90;;;8.05;79.92;101664.38;1656204;76;24599;-75
2021/01/06 07:41:49;;;;;;;14.51;10.64;;;3.00;99.90;;;8.07;80.20;101667.92;1655503;76;24568;-73
2021/01/06 07:44:18;;;;;;;13.53;10.05;;;3.00;99.90;;;8.13;80.53;101660.73;1707856;74;24540;-75
2021/01/06 07:46:49;;;;;;;14.47;10.51;;;3.10;99.90;;;8.12;79.60;101663.77;1705446;74;24464;-76
2021/01/06 07:49:39;;;;;;;14.62;10.09;;;3.10;99.90;;;8.10;80.23;101664.53;1708607;74;24603;-78
2021/01/06 07:52:02;;;;;;;13.66;10.62;;;3.10;99.90;;;8.05;80.24;101671.27;1705153;74;24516;-75
2021/01/06 07:54:25;;;;;;;14.99;10.26;;;3.10;99.90;;;8.18;80.16;101666.97;1697830;74;24571;-75
2021/01/06 07:56:50;;;;;;;14.58;10.57;;;3.20;99.90;;;8.22;80.28;101673.59;1701128;74;25029;-76
2021/01/06 07:59:15;;;;;;;14.91;10.08;;;3.20;99.90;;;8.30;80.60;101667.42;1699326;73;24611;-77
2021/01/06 08:01:44;;;;;;;12.08;9.70;;;3.20;99.90;;;8.35;80.29;101663.23;1705165;73;24366;-74
2021/01/06 08:04:06;;;;;;;13.58;9.82;;;3.30;99.90;;;8.31;80.04;101669.17;1707191;74;24508;-76
2021/01/06 08:06:26;;;;;;;12.99;9.99;;;3.40;99.90;;;8.29;80.32;101676.91;1709671;73;24961;-76
2021/01/06 08:08:49;;;;;;;12.41;9.86;;;3.40;99.90;;;8.36;80.17;101667.17;1699730;74;24492;-75
2021/01/06 08:11:11;;;;;;;14.14;10.21;;;3.40;99.90;;;8.32;80.52;101666.63;1706657;74;25499;-78
2021/01/06 08:13:35;;;;;;;13.16;10.45;;;3.50;99.90;;;8.50;80.52;101668.94;1707965;74;24608;-77
2021/01/06 08:15:55;;;;;;;12.16;9.69;;;3.50;99.90;;;8.27;80.38;101669.89;1713625;74;25286;-74
2021/01/06 08:18:22;;;;;;;13.31;10.46;;;3.50;99.90;;;8.43;80.46;101672.16;1708484;74;24569;-73
2021/01/06 08:20:43;;;;;;;12.06;9.74;;;3.50;99.90;;;8.40;80.15;101668.16;1701788;74;24492;-72
2021/01/06 08:23:06;;;;;;;12.42;10.18;;;3.60;99.90;;;8.44;80.23;101672.64;1706989;74;24920;-74
2021/01/06 08:25:27;;;;;;;13.74;10.01;;;3.60;99.90;;;8.32;80.11;101678.30;1700031;74;24492;-72
2021/01/06 08:27:45;;;;;;;12.09;9.49;;;3.60;99.90;;;8.25;80.44;101679.36;1712261;74;24535;-71
2021/01/06 08:30:23;;;;;;;12.59;9.57;;;3.60;99.90;;;8.44;80.39;101681.73;1706674;73;25021;-74
2021/01/06 08:32:40;;;;;;;11.90;9.73;;;3.60;99.90;;;8.35;80.62;101684.00;1710092;73;24897;-74
2021/01/06 08:35:02;;;;;;;12.43;9.49;;;3.60;99.90;;;8.39;80.74;101676.39;1706982;74;24973;-76
2021/01/06 08:37:25;;;;;;;11.91;9.17;;;3.60;99.90;;;8.26;80.42;101682.41;1704693;73;24475;-76
2021/01/06 08:39:53;;;;;;;12.69;9.62;;;3.70;99.90;;;8.47;80.14;101678.78;1704755;74;24550;-75
2021/01/06 08:42:22;;;;;;;11.14;9.04;;;3.70;99.90;;;8.44;80.27;101679.12;1673300;75;24425;-74
2021/01/06 08:44:58;;;;;;;10.89;9.01;;;3.70;99.90;;;8.44;80.16;101675.23;1643298;77;24489;-73
2021/01/06 08:47:28;;;;;;;11.44;8.54;;;3.70;99.90;;;8.58;79.78;101678.71;1663292;76;24537;-74
2021/01/06 08:49:48;;;;;;;11.44;8.66;;;3.80;99.90;;;8.51;80.06;101685.86;1659254;76;24512;-76
2021/01/06 08:52:27;;;;;;;12.32;8.88;;;3.80;99.90;;;8.60;80.93;101678.35;1656881;76;24560;-73
2021/01/06 08:54:44;;;;;;;11.90;9.30;;;3.80;99.90;;;8.48;79.54;101681.87;1657212;76;24598;-75
2021/01/06 08:57:09;;;;;;;12.56;9.83;;;3.80;99.90;;;8.45;79.72;101679.18;1659495;76;24592;-75
2021/01/06 08:59:31;;;;;;;12.50;9.21;;;3.80;99.90;;;8.51;80.26;101681.07;1711658;74;24538;-74
2021/01/06 09:01:53;;;;;;;13.38;9.19;;;3.80;99.90;;;8.51;79.98;101679.37;1708247;74;24968;-75
2021/01/06 09:04:15;;;;;;;12.77;9.89;;;3.80;99.90;;;8.54;80.56;101683.77;1707522;73;25031;-73
2021/01/06 09:06:32;;;;;;;12.00;9.23;;;3.80;99.90;;;8.49;80.57;101684.91;1705979;74;24494;-75
2021/01/06 09:08:55;;;;;;;12.86;9.70;;;3.80;99.90;;;8.50;80.31;101685.81;1710756;73;24666;-74
2021/01/06 09:11:28;;;;;;;12.02;9.64;;;3.80;99.90;;;8.58;80.40;101686.94;1700433;74;24948;-71
2021/01/06 09:13:50;;;;;;;12.76;9.26;;;3.80;99.90;;;8.54;80.31;101683.36;1710378;74;25081;-76
2021/01/06 09:16:13;;;;;;;12.20;8.80;;;3.80;99.90;;;8.50;80.48;101688.41;1710174;74;24439;-74
2021/01/06 09:18:34;;;;;;;13.75;9.78;;;3.80;99.90;;;8.57;81.22;101689.94;1706536;74;24549;-74
2021/01/06 09:21:08;;;;;;;12.26;9.39;;;3.80;99.90;;;8.77;80.09;101694.47;1704640;74;24439;-71
2021/01/06 09:23:25;;;;;;;11.20;9.00;;;3.80;99.90;;;8.58;80.87;101690.39;1703964;73;24474;-74
2021/01/06 09:25:41;;;;;;;12.06;9.40;;;3.80;99.90;;;8.39;79.19;101692.36;1713743;74;24925;-76
2021/01/06 09:28:02;;;;;;;11.55;9.34;;;3.80;99.90;;;8.59;80.18;101686.09;1704944;74;24570;-74
2021/01/06 09:30:28;;;;;;;11.01;8.85;;;3.80;99.90;;;8.53;79.24;101693.69;1704277;73;24700;-73
2021/01/06 09:32:48;;;;;;;11.32;8.94;;;3.90;99.90;;;8.47;79.46;101687.02;1702199;74;24464;-73
2021/01/06 09:35:09;;;;;;;11.80;8.45;;;3.90;99.90;;;8.46;78.68;101691.31;1702992;73;24457;-75
2021/01/06 09:37:30;;;;;;;11.09;9.04;;;3.90;99.90;;;8.40;80.46;101696.71;1703758;73;24968;-73
2021/01/06 09:39:48;;;;;;;10.06;8.48;;;3.90;99.90;;;8.61;80.83;101690.52;1699498;74;24467;-75
2021/01/06 09:42:06;;;;;;;12.11;9.08;;;3.90;99.90;;;8.58;80.57;101687.80;1713887;74;24567;-73
2021/01/06 09:44:26;;;;;;;13.36;8.69;;;3.90;99.90;;;8.48;80.28;101690.95;1701417;74;24457;-73
2021/01/06 09:46:53;;;;;;;13.30;9.04;;;4.00;99.90;;;8.45;78.71;101693.86;1702933;74;25028;-75
2021/01/06 09:49:13;;;;;;;11.70;8.87;;;4.00;99.90;;;8.61;78.84;101693.52;1712432;74;24503;-73
2021/01/06 09:51:34;;;;;;;11.11;9.42;;;4.00;99.90;;;8.60;79.60;101690.47;1708260;74;24540;-73
2021/01/06 09:53:57;;;;;;;10.69;8.98;;;4.10;99.90;;;8.71;79.79;101696.45;1708236;74;24499;-75
2021/01/06 09:56:16;;;;;;;10.29;8.57;;;4.10;99.90;;;8.86;78.28;101705.14;1694389;74;25079;-74
2021/01/06 09:58:37;;;;;;;9.45;8.11;;;4.20;99.90;;;8.85;78.09;101693.00;1706400;74;24503;-74
2021/01/06 10:01:03;;;;;;;9.71;8.56;;;4.20;99.90;;;8.72;77.39;101697.34;1704783;74;24475;-74
2021/01/06 10:03:19;;;;;;;11.41;8.80;;;4.30;99.90;;;8.90;79.38;101692.29;1697887;74;24504;-76
2021/01/06 10:06:15;;;;;;;9.46;7.82;;;4.30;99.90;;;9.04;79.05;101690.98;1699883;74;24518;-75